AirNav   Everest Fuels
 
 535 users online  

37MI Handleman Sky Ranch Airport
Oxford, Michigan, USA

GOING TO OXFORD?


FAA INFORMATION EFFECTIVE 30 DECEMBER 2021

Location

FAA Identifier: 37MI
Lat/Long: 42-51-10.1070N 083-13-39.7820W
42-51.168450N 083-13.663033W
42.8528075,-83.2277172
(estimated)
Elevation: 1150 ft. / 351 m (estimated)
Variation: 06W (1985)
From city: 3 miles SW of OXFORD, MI
Time zone: UTC -5 (UTC -4 during Daylight Saving Time)
Zip code: 48370

Airport Operations

Airport use: Private use. Permission required prior to landing
Activation date: 08/1981
Control tower: no
ARTCC: CLEVELAND CENTER
FSS: LANSING FLIGHT SERVICE STATION
Attendance: CONTINUOUS
Wind indicator: yes
Segmented circle: yes

Airport Communications

WX AWOS-3P at D95 (13 nm N): 134.050 (810-664-5038)
WX ASOS at PTK (14 nm SW): 125.025 (248-886-8551)
WX AWOS-3 at VLL (19 nm S): 119.475 (248-288-4649)

Nearby radio navigation aids

VOR radial/distance  VOR name  Freq  Var
FNTr113/23.8FLINT VORTAC116.9006W
SVMr034/31.2SALEM VORTAC114.3003W
DXOr015/38.9DETROIT VOR/DME113.4006W

Airport Services

Runway Information

Runway 1/19

Dimensions: 2550 x 150 ft. / 777 x 46 m
Surface: turf
Runway edge markings: DSPLCD THLDS MKD WITH YELLOW CONES.
RUNWAY 1  RUNWAY 19
Traffic pattern: leftleft
Displaced threshold: 800 ft.800 ft.
Obstructions: 50 ft. trees, 10 ft. from runway50 ft. trees, 40 ft. from runway
AND WIRES

Runway 8/26

Dimensions: 2550 x 150 ft. / 777 x 46 m
Surface: turf
RUNWAY 8  RUNWAY 26
Traffic pattern: leftleft
Displaced threshold: 800 ft.800 ft.
Obstructions: 50 ft. trees, 20 ft. from runway50 ft. trees, 10 ft. from runway

Airport Ownership and Management from official FAA records

Ownership: Privately-owned
Owner: PHILIP AND MARY HANDLEMAN
4173 NOBLE ROAD
OXFORD, MI 48371
Phone 248-572-7343
Manager: PHILIP HANDLEMAN
4173 NOBLE ROAD
OXFORD, MI 48371
Phone 248-572-7343

Airport Operational Statistics

Aircraft based on the field: 2
Single engine airplanes: 2
    

Additional Remarks

FOR CD CTC GREAT LAKES APCH AT 269-459-3345, WHEN APCH CLSD CTC CLEVELAND ARTCC AT 440-774-0490

Instrument Procedures

There are no published instrument procedures at 37MI.

Some nearby airports with instrument procedures:

D98 - Romeo State Airport (12 nm E)
D95 - Dupont-Lapeer Airport (13 nm N)
KPTK - Oakland County International Airport (14 nm SW)
57D - Ray Community Airport (16 nm SE)
KVLL - Oakland/Troy Airport (19 nm S)
 
Loc | Ops | Rwys | IFR | FBO | Links
Com | Nav | Svcs | Stats | Notes
Area around 37MI (Handleman Sky Ranch Airport)
 
Road maps at: MapQuest Bing Google
 
Aerial photo
No photo
 
Sectional chart

 
Airport distance calculator
Flying to Handleman Sky Ranch Airport? Find the distance to fly.

From to 37MI

Sunrise and sunset
Times for 27-Jan-2022
 Local
(UTC-5)
 Zulu
(UTC)
Morning civil twilight07:2312:23
Sunrise07:5412:54
Sunset17:3822:38
Evening civil twilight18:0823:08

Current date and time
Zulu (UTC)  27-Jan-2022 06:59:35
Local (UTC-5)  27-Jan-2022 01:59:35
 
METAR
KD95 
13nm N 
270655Z AUTO 21010KT 10SM CLR M13/M18 A3020 RMK AO2 T11341176
KPTK 
14nm SW 
270653Z AUTO 19008KT 10SM CLR M14/M18 A3020 RMK AO2 SLP248 T11441183
KVLL 
19nm S 
270655Z AUTO 21008KT 10SM CLR M13/M18 A3027 RMK AO2 T11351176
KMTC 
23nm SE 
270556Z AUTO 18006KT 10SM CLR M15/M18 A3026 RMK AO2 SLP264 T11531180 11113 21153 57016 TSNO $
KFNT 
24nm W 
270653Z 19009KT 10SM CLR M13/M18 A3019 RMK AO2 SLP242 T11331183
TAF
KPTK 
14nm SW 
270520Z 2706/2806 20010KT P6SM BKN200 WS018/23040KT FM271200 22013G22KT P6SM OVC040 FM272100 26011G19KT P6SM OVC030 FM280300 34012G22KT 3SM -SHSN OVC015 FM280500 35012KT P6SM SCT030 OVC050
NOTAMs
Click for the latest NOTAMs
NOTAMs are issued by the DoD/FAA and will open in a separate window not controlled by AirNav.

 

 
 

Would you like to see your business listed on this page?

 If your business provides an interesting product or service to pilots, flight crews, aircraft, or users of the Handleman Sky Ranch Airport, you should consider listing it here.  To start the listing process, click on the button below
 
Add a business
 

Other Pages about Handleman Sky Ranch Airport

Update a link
 
Copyright © AirNav, LLC. All rights reserved. Privacy Policy  Contact